Terminal Aerodrome Forecast
Issued by NWS Pocatello, ID

Home | Current Version | Previous Version | Text Only | Print | Product List | Glossary On
Versions: 1 2 3 4 5 6 7 8 9 10 11 12 13 14 15
000
FTUS45 KPIH 190720 AAA
TAFBYI
TAF AMD
KBYI 190720Z 1907/2006 27015G25KT P6SM VCSH OVC100
     FM191100 25011KT P6SM -RA SCT025 OVC035
     FM191700 24011G20KT P6SM VCSH BKN025 OVC040
     FM192000 28013G23KT P6SM VCSH SCT035 BKN100
     FM200200 25011KT P6SM BKN100=

USA.gov is the U.S. government's official web portal to all federal, state and local government web resources and services.